createdAt,value
2022-11-22T00:01:12.314Z,100.00
2022-11-22T00:03:40.307Z,100.00
2022-11-22T00:06:08.241Z,100.00
2022-11-22T00:08:36.202Z,100.00
2022-11-22T00:11:04.132Z,100.00
2022-11-22T00:13:32.191Z,100.00
2022-11-22T00:16:01.186Z,100.00
2022-11-22T00:18:31.171Z,100.00
2022-11-22T00:21:05.317Z,100.00
2022-11-22T00:23:33.270Z,100.00
2022-11-22T00:26:01.229Z,100.00
2022-11-22T00:28:29.190Z,100.00
2022-11-22T00:30:57.134Z,100.00
2022-11-22T00:33:25.168Z,100.00
2022-11-22T00:35:54.503Z,100.00
2022-11-22T00:38:22.514Z,100.00
2022-11-22T00:40:50.697Z,100.00
2022-11-22T00:43:18.970Z,100.00
2022-11-22T00:45:46.951Z,100.00
2022-11-22T00:48:14.932Z,100.00
2022-11-22T00:50:42.878Z,100.00
2022-11-22T00:53:12.204Z,100.00
2022-11-22T00:55:40.158Z,100.00
2022-11-22T00:58:08.112Z,100.00
2022-11-22T01:00:36.075Z,100.00
2022-11-22T01:03:04.261Z,100.00
2022-11-22T01:05:32.227Z,100.00
2022-11-22T01:08:00.372Z,100.00
2022-11-22T01:10:29.713Z,100.00
2022-11-22T01:12:58.747Z,100.00
2022-11-22T01:15:26.724Z,100.00
2022-11-22T01:17:54.696Z,100.00
2022-11-22T01:20:23.033Z,100.00
2022-11-22T01:22:51.238Z,100.00
2022-11-22T01:25:19.298Z,100.00
2022-11-22T01:27:51.041Z,100.00
2022-11-22T01:30:19.600Z,100.00
2022-11-22T01:32:47.627Z,100.00
2022-11-22T01:35:15.693Z,100.00
2022-11-22T01:37:43.668Z,100.00
2022-11-22T01:40:12.573Z,100.00
2022-11-22T01:42:45.421Z,100.00
2022-11-22T01:45:45.600Z,100.00
2022-11-22T01:48:39.544Z,100.00
2022-11-22T01:51:22.147Z,100.00
2022-11-22T01:53:50.442Z,100.00
2022-11-22T01:56:22.172Z,100.00
2022-11-22T01:58:56.625Z,100.00
2022-11-22T02:01:26.115Z,100.00
2022-11-22T02:03:57.617Z,100.00
2022-11-22T02:06:29.841Z,100.00
2022-11-22T02:09:04.698Z,100.00
2022-11-22T02:11:34.400Z,100.00
2022-11-22T02:14:02.809Z,100.00
2022-11-22T02:16:32.941Z,100.00
2022-11-22T02:19:00.884Z,100.00
2022-11-22T02:21:30.340Z,100.00
2022-11-22T02:24:07.327Z,100.00
2022-11-22T02:26:37.422Z,100.00
2022-11-22T02:29:08.928Z,100.00
2022-11-22T02:31:41.101Z,100.00
2022-11-22T02:34:09.356Z,100.00
2022-11-22T02:36:42.661Z,100.00
2022-11-22T02:39:12.604Z,100.00
2022-11-22T02:41:42.042Z,100.00
2022-11-22T02:44:11.833Z,100.00
2022-11-22T02:46:48.696Z,100.00
2022-11-22T02:49:19.212Z,100.00
2022-11-22T02:51:47.563Z,100.00
2022-11-22T02:54:15.712Z,100.00
2022-11-22T02:56:45.113Z,100.00
2022-11-22T02:59:13.090Z,100.00
2022-11-22T03:01:41.429Z,100.00
2022-11-22T03:04:09.408Z,100.00
2022-11-22T03:06:37.353Z,100.00
2022-11-22T03:09:05.422Z,100.00
2022-11-22T03:11:33.348Z,100.00
2022-11-22T03:14:02.672Z,100.00
2022-11-22T03:16:31.826Z,100.00
2022-11-22T03:18:59.797Z,100.00
2022-11-22T03:21:27.805Z,100.00
2022-11-22T03:23:56.131Z,100.00
2022-11-22T03:26:24.075Z,100.00
2022-11-22T03:28:52.150Z,100.00
2022-11-22T03:31:21.537Z,100.00
2022-11-22T03:33:49.486Z,100.00
2022-11-22T03:36:17.486Z,100.00
2022-11-22T03:38:45.435Z,100.00
2022-11-22T03:41:13.443Z,100.00
2022-11-22T03:43:41.388Z,100.00
2022-11-22T03:46:15.357Z,100.00
2022-11-22T03:48:44.702Z,100.00
2022-11-22T03:51:13.045Z,100.00
2022-11-22T03:53:41.096Z,100.00
2022-11-22T03:56:09.075Z,100.00
2022-11-22T03:58:37.244Z,100.00
2022-11-22T04:01:05.340Z,100.00
2022-11-22T04:03:33.389Z,100.00
2022-11-22T04:06:02.765Z,100.00
2022-11-22T04:08:30.735Z,100.00
2022-11-22T04:10:58.700Z,100.00
2022-11-22T04:13:47.397Z,100.00
2022-11-22T04:16:14.489Z,100.00
2022-11-22T04:18:42.447Z,100.00
2022-11-22T04:21:25.621Z,100.00
2022-11-22T04:24:07.383Z,100.00
2022-11-22T04:26:35.330Z,100.00
2022-11-22T04:29:09.723Z,100.00
2022-11-22T04:31:55.648Z,100.00
2022-11-22T04:34:24.415Z,100.00
2022-11-22T04:36:53.794Z,100.00
2022-11-22T04:39:21.834Z,100.00
2022-11-22T04:42:10.395Z,100.00
2022-11-22T04:44:43.202Z,100.00
2022-11-22T04:47:12.292Z,100.00
2022-11-22T04:49:40.681Z,100.00
2022-11-22T04:52:27.983Z,100.00
2022-11-22T04:54:55.922Z,100.00
2022-11-22T04:57:23.855Z,100.00
2022-11-22T04:59:51.781Z,100.00
2022-11-22T05:02:19.708Z,100.00
2022-11-22T05:04:50.670Z,100.00
2022-11-22T05:07:20.355Z,100.00
2022-11-22T05:09:48.351Z,100.00
2022-11-22T05:12:16.306Z,100.00
2022-11-22T05:14:44.244Z,100.00
2022-11-22T05:17:13.537Z,100.00
2022-11-22T05:19:47.779Z,100.00
2022-11-22T05:22:17.462Z,100.00
2022-11-22T05:24:45.772Z,100.00
2022-11-22T05:27:13.713Z,100.00
2022-11-22T05:29:41.695Z,100.00
2022-11-22T05:32:09.642Z,100.00
2022-11-22T05:34:37.580Z,100.00
2022-11-22T05:37:05.506Z,100.00
2022-11-22T05:39:33.445Z,100.00
2022-11-22T05:42:05.950Z,100.00
2022-11-22T05:44:34.172Z,100.00
2022-11-22T05:47:02.113Z,100.00
2022-11-22T05:49:30.400Z,100.00
2022-11-22T05:51:58.558Z,100.00
2022-11-22T05:54:26.536Z,100.00
2022-11-22T05:56:54.554Z,100.00
2022-11-22T05:59:24.036Z,100.00
2022-11-22T06:01:52.087Z,100.00
2022-11-22T06:04:20.244Z,100.00
2022-11-22T06:06:48.405Z,100.00
2022-11-22T06:09:16.420Z,100.00
2022-11-22T06:11:44.363Z,100.00
2022-11-22T06:14:12.297Z,100.00
2022-11-22T06:16:41.626Z,100.00
2022-11-22T06:19:09.768Z,100.00
2022-11-22T06:21:37.729Z,100.00
2022-11-22T06:24:06.285Z,100.00
2022-11-22T06:26:39.012Z,100.00
2022-11-22T06:29:07.638Z,100.00
2022-11-22T06:31:35.623Z,100.00
2022-11-22T06:34:05.260Z,100.00
2022-11-22T06:36:35.135Z,100.00
2022-11-22T06:39:03.898Z,100.00
2022-11-22T06:41:34.954Z,100.00
2022-11-22T06:44:06.702Z,100.00
2022-11-22T06:46:35.156Z,100.00
2022-11-22T06:49:05.040Z,100.00
2022-11-22T06:51:33.412Z,100.00
2022-11-22T06:54:01.376Z,100.00
2022-11-22T06:56:30.998Z,100.00
2022-11-22T06:58:59.496Z,100.00
2022-11-22T07:01:29.319Z,100.00
2022-11-22T07:03:59.307Z,100.00
2022-11-22T07:06:30.596Z,100.00
2022-11-22T07:09:00.187Z,100.00
2022-11-22T07:11:29.645Z,100.00
2022-11-22T07:14:05.331Z,100.00
2022-11-22T07:16:36.207Z,99.23
2022-11-22T07:19:04.523Z,96.67
2022-11-22T07:21:33.871Z,97.47
2022-11-22T07:24:01.797Z,97.71
2022-11-22T07:26:29.735Z,97.87
2022-11-22T07:28:58.042Z,95.15
2022-11-22T07:31:26.263Z,96.23
2022-11-22T07:33:54.187Z,96.20
2022-11-22T07:36:23.456Z,93.29
2022-11-22T07:38:52.877Z,97.00
2022-11-22T07:41:22.248Z,97.04
2022-11-22T07:43:50.219Z,99.43
2022-11-22T07:46:23.429Z,97.52
2022-11-22T07:48:51.550Z,96.88
2022-11-22T07:51:19.636Z,97.51
2022-11-22T07:53:47.922Z,96.75
2022-11-22T07:56:17.424Z,92.27
2022-11-22T07:58:45.632Z,94.99
2022-11-22T08:01:15.307Z,89.82
2022-11-22T08:03:43.439Z,91.34
2022-11-22T08:06:13.347Z,90.24
2022-11-22T08:08:41.764Z,88.85
2022-11-22T08:11:10.196Z,89.91
2022-11-22T08:13:39.574Z,89.12
2022-11-22T08:16:11.100Z,86.03
2022-11-22T08:18:40.230Z,87.81
2022-11-22T08:21:09.992Z,87.45
2022-11-22T08:23:38.435Z,87.76
2022-11-22T08:26:08.149Z,89.64
2022-11-22T08:28:36.491Z,86.79
2022-11-22T08:31:08.623Z,86.46
2022-11-22T08:33:36.614Z,86.45
2022-11-22T08:36:04.948Z,87.68
2022-11-22T08:38:33.105Z,85.14
2022-11-22T08:41:01.030Z,86.86
2022-11-22T08:43:28.956Z,86.36
2022-11-22T08:45:58.009Z,83.87
2022-11-22T08:48:28.372Z,83.37
2022-11-22T08:50:58.313Z,83.27
2022-11-22T08:53:27.465Z,83.71
2022-11-22T08:55:56.208Z,84.32
2022-11-22T08:58:24.217Z,77.85
2022-11-22T09:00:52.160Z,81.70
2022-11-22T09:03:20.185Z,82.47
2022-11-22T09:08:40.450Z,79.69
2022-11-22T09:11:12.333Z,79.58
2022-11-22T09:13:40.729Z,80.40
2022-11-22T09:16:11.121Z,78.10
2022-11-22T09:18:39.476Z,85.60
2022-11-22T09:21:10.395Z,84.28
2022-11-22T09:23:39.130Z,80.17
2022-11-22T09:26:08.553Z,81.63
2022-11-22T09:28:37.118Z,80.53
2022-11-22T09:31:07.048Z,76.63
2022-11-22T09:33:35.779Z,77.35
2022-11-22T09:36:06.244Z,76.86
2022-11-22T09:38:36.905Z,77.77
2022-11-22T09:41:19.672Z,78.51
2022-11-22T09:43:57.640Z,77.90
2022-11-22T09:46:40.703Z,75.07
2022-11-22T09:49:28.832Z,81.07
2022-11-22T09:52:05.124Z,79.54
2022-11-22T09:54:41.741Z,77.47
2022-11-22T09:57:17.608Z,77.59
2022-11-22T09:59:48.565Z,80.42
2022-11-22T10:02:23.635Z,77.35
2022-11-22T10:04:57.712Z,80.13
2022-11-22T10:07:28.845Z,80.56
2022-11-22T10:10:05.344Z,75.12
2022-11-22T10:12:39.856Z,72.77
2022-11-22T10:15:17.011Z,78.24
2022-11-22T10:17:54.344Z,68.40
2022-11-22T10:20:23.869Z,73.64
2022-11-22T10:22:52.069Z,75.75
2022-11-22T10:25:23.261Z,80.41
2022-11-22T10:27:57.554Z,76.58
2022-11-22T10:30:33.656Z,72.99
2022-11-22T10:33:14.298Z,70.62
2022-11-22T10:36:06.523Z,69.42
2022-11-22T10:38:57.586Z,69.85
2022-11-22T10:41:45.208Z,64.99
2022-11-22T10:44:25.432Z,67.38
2022-11-22T10:47:03.195Z,69.10
2022-11-22T10:49:44.781Z,73.33
2022-11-22T10:52:23.308Z,68.55
2022-11-22T10:54:59.636Z,68.54
2022-11-22T10:57:37.291Z,69.46
2022-11-22T11:00:19.638Z,66.51
2022-11-22T11:03:15.084Z,73.60
2022-11-22T11:09:03.131Z,76.15
2022-11-22T11:11:31.440Z,70.27
2022-11-22T11:14:05.876Z,73.20
2022-11-22T11:16:37.364Z,71.78
2022-11-22T11:19:16.989Z,70.76
2022-11-22T11:21:44.977Z,67.88
2022-11-22T11:24:16.003Z,68.21
2022-11-22T11:26:52.242Z,73.24
2022-11-22T11:29:39.505Z,72.35
2022-11-22T11:32:13.161Z,72.35
2022-11-22T11:34:44.032Z,73.45
2022-11-22T11:37:23.020Z,77.64
2022-11-22T11:39:51.172Z,74.23
2022-11-22T11:42:25.479Z,76.89
2022-11-22T11:44:55.255Z,73.55
2022-11-22T11:47:34.565Z,71.99
2022-11-22T11:50:02.754Z,67.87
2022-11-22T11:52:31.739Z,71.08
2022-11-22T11:55:03.442Z,69.83
2022-11-22T11:57:34.875Z,68.96
2022-11-22T12:00:07.408Z,71.22
2022-11-22T12:02:40.202Z,76.17
2022-11-22T12:05:25.775Z,63.38
2022-11-22T12:07:53.913Z,64.05
2022-11-22T12:10:32.065Z,71.00
2022-11-22T12:13:05.137Z,60.18
2022-11-22T12:15:43.672Z,62.04
2022-11-22T12:18:31.283Z,65.24
2022-11-22T12:21:16.929Z,68.54
2022-11-22T12:23:51.751Z,65.83
2022-11-22T12:26:20.270Z,63.09
2022-11-22T12:28:49.004Z,66.14
2022-11-22T12:31:29.517Z,65.16
2022-11-22T12:33:59.996Z,65.02
2022-11-22T12:36:34.908Z,66.64
2022-11-22T12:39:05.039Z,64.42
2022-11-22T12:41:35.355Z,66.25
2022-11-22T12:44:08.003Z,71.00
2022-11-22T12:46:40.619Z,70.78
2022-11-22T12:49:16.593Z,68.33
2022-11-22T12:51:48.492Z,74.08
2022-11-22T12:54:21.092Z,71.65
2022-11-22T12:56:53.024Z,70.01
2022-11-22T12:59:33.659Z,69.49
2022-11-22T13:02:14.239Z,72.33
2022-11-22T13:04:57.363Z,74.23
2022-11-22T13:07:34.281Z,72.49
2022-11-22T13:10:08.413Z,72.58
2022-11-22T13:12:38.159Z,74.84
2022-11-22T13:15:06.824Z,77.48
2022-11-22T13:17:38.760Z,73.98
2022-11-22T13:20:14.457Z,76.21
2022-11-22T13:22:53.156Z,79.58
2022-11-22T13:25:41.890Z,69.22
2022-11-22T13:28:15.355Z,71.01
2022-11-22T13:31:21.308Z,70.95
2022-11-22T13:33:57.838Z,72.61
2022-11-22T13:36:41.442Z,75.30
2022-11-22T13:39:17.122Z,75.29
2022-11-22T13:41:53.904Z,76.82
2022-11-22T13:44:36.329Z,73.59
2022-11-22T13:47:05.667Z,76.27
2022-11-22T13:49:41.233Z,73.63
2022-11-22T13:52:51.045Z,72.71
2022-11-22T13:55:40.324Z,72.92
2022-11-22T13:58:52.286Z,74.31
2022-11-22T14:01:57.297Z,75.71
2022-11-22T14:04:40.838Z,74.65
2022-11-22T14:07:27.511Z,73.00
2022-11-22T14:09:57.467Z,73.42
2022-11-22T14:12:53.164Z,72.48
2022-11-22T14:15:49.205Z,72.82
2022-11-22T14:18:37.623Z,74.03
2022-11-22T14:21:13.710Z,74.51
2022-11-22T14:23:54.716Z,74.21
2022-11-22T14:26:31.195Z,76.27
2022-11-22T14:29:47.157Z,76.74
2022-11-22T14:32:20.624Z,79.72
2022-11-22T14:35:21.493Z,81.36
2022-11-22T14:38:19.066Z,81.37
2022-11-22T14:40:48.088Z,82.12
2022-11-22T14:43:26.702Z,82.70
2022-11-22T14:45:59.527Z,82.32
2022-11-22T14:48:33.159Z,83.16
2022-11-22T14:51:08.317Z,83.70
2022-11-22T14:53:46.904Z,83.76
2022-11-22T14:56:18.168Z,84.51
2022-11-22T14:58:58.255Z,85.08
2022-11-22T15:02:07.791Z,85.83
2022-11-22T15:09:12.527Z,85.26
2022-11-22T15:09:20.356Z,85.85
2022-11-22T15:11:33.234Z,86.25
2022-11-22T15:14:32.117Z,87.27
2022-11-22T15:57:37.349Z,89.88
2022-11-22T16:00:11.964Z,88.49
2022-11-22T16:02:50.194Z,86.12
2022-11-22T16:06:06.818Z,86.87
2022-11-22T16:08:15.883Z,85.38
2022-11-22T16:10:50.181Z,84.63
2022-11-22T16:13:27.665Z,84.67
2022-11-22T16:16:18.864Z,82.96
2022-11-22T16:18:48.929Z,81.80
2022-11-22T16:21:27.824Z,84.33
2022-11-22T16:24:17.986Z,83.88
2022-11-22T16:26:56.312Z,82.03
2022-11-22T16:29:32.338Z,82.01
2022-11-22T16:32:02.491Z,82.94
2022-11-22T16:34:31.861Z,82.96
2022-11-22T16:37:00.131Z,83.04
2022-11-22T16:39:28.236Z,83.05
2022-11-22T16:41:56.476Z,83.70
2022-11-22T16:44:24.426Z,83.40
2022-11-22T16:46:52.348Z,84.07
2022-11-22T16:49:21.711Z,84.51
2022-11-22T16:51:52.235Z,84.32
2022-11-22T16:54:23.912Z,85.22
2022-11-22T16:56:51.906Z,82.80
2022-11-22T16:59:19.853Z,83.92
2022-11-22T17:01:47.798Z,84.78
2022-11-22T17:04:22.939Z,84.38
2022-11-22T17:06:52.754Z,84.50
2022-11-22T17:09:21.049Z,83.83
2022-11-22T17:11:49.077Z,86.16
2022-11-22T17:14:18.337Z,84.76
2022-11-22T17:16:46.918Z,85.00
2022-11-22T17:19:45.440Z,84.47
2022-11-22T17:22:07.119Z,85.41
2022-11-22T17:24:35.321Z,85.52
2022-11-22T17:27:03.251Z,83.90
2022-11-22T17:32:19.456Z,84.88
2022-11-22T17:34:47.407Z,84.70
2022-11-22T17:37:16.803Z,85.50
2022-11-22T17:39:44.745Z,85.68
2022-11-22T17:42:13.336Z,85.58
2022-11-22T17:44:41.260Z,85.45
2022-11-22T17:47:09.202Z,85.72
2022-11-22T17:49:37.164Z,86.55
2022-11-22T17:52:05.124Z,86.43
2022-11-22T17:54:34.491Z,87.27
2022-11-22T17:57:02.416Z,88.34
2022-11-22T17:59:30.696Z,89.16
2022-11-22T18:01:59.468Z,89.59
2022-11-22T18:04:27.451Z,89.97
2022-11-22T18:06:55.404Z,92.36
2022-11-22T18:09:23.316Z,92.34
2022-11-22T18:11:52.616Z,93.14
2022-11-22T18:14:20.529Z,93.52
2022-11-22T18:16:48.454Z,93.71
2022-11-22T18:19:16.689Z,93.72
2022-11-22T18:21:44.596Z,94.88
2022-11-22T18:24:12.724Z,95.74
2022-11-22T18:26:41.565Z,96.65
2022-11-22T18:32:01.476Z,97.77
2022-11-22T18:34:30.259Z,99.55
2022-11-22T18:37:01.979Z,100.00
2022-11-22T18:39:32.637Z,100.00
2022-11-22T18:42:00.914Z,100.00
2022-11-22T18:44:30.341Z,100.00
2022-11-22T18:46:58.280Z,100.00
2022-11-22T18:49:26.310Z,100.00
2022-11-22T18:51:54.462Z,100.00
2022-11-22T18:54:22.952Z,100.00
2022-11-22T18:56:51.128Z,100.00
2022-11-22T18:59:19.392Z,100.00
2022-11-22T19:01:48.718Z,100.00
2022-11-22T19:04:17.349Z,100.00
2022-11-22T19:06:45.970Z,100.00
2022-11-22T19:09:13.998Z,100.00
2022-11-22T19:11:42.023Z,100.00
2022-11-22T19:14:10.279Z,100.00
2022-11-22T19:16:38.245Z,100.00
2022-11-22T19:19:08.463Z,100.00
2022-11-22T19:21:36.407Z,100.00
2022-11-22T19:24:04.681Z,100.00
2022-11-22T19:26:32.628Z,100.00
2022-11-22T19:29:02.743Z,100.00
2022-11-22T19:31:31.579Z,100.00
2022-11-22T19:34:00.466Z,100.00
2022-11-22T19:36:33.640Z,100.00
2022-11-22T19:39:02.607Z,100.00
2022-11-22T19:41:31.114Z,100.00
2022-11-22T19:43:59.435Z,100.00
2022-11-22T19:46:27.586Z,100.00
2022-11-22T19:48:57.000Z,100.00
2022-11-22T19:51:26.422Z,100.00
2022-11-22T19:53:58.854Z,100.00
2022-11-22T19:56:30.326Z,100.00
2022-11-22T19:58:59.824Z,100.00
2022-11-22T20:01:29.619Z,100.00
2022-11-22T20:04:00.394Z,100.00
2022-11-22T20:06:28.983Z,100.00
2022-11-22T20:09:02.967Z,100.00
2022-11-22T20:11:30.933Z,100.00
2022-11-22T20:13:58.836Z,100.00
2022-11-22T20:16:28.341Z,100.00
2022-11-22T20:18:57.229Z,100.00
2022-11-22T20:21:26.347Z,100.00
2022-11-22T20:23:55.095Z,100.00
2022-11-22T20:26:25.253Z,100.00
2022-11-22T20:28:56.866Z,100.00
2022-11-22T20:31:25.016Z,100.00
2022-11-22T20:33:54.461Z,100.00
2022-11-22T20:36:24.292Z,100.00
2022-11-22T20:38:52.883Z,100.00
2022-11-22T20:41:22.976Z,100.00
2022-11-22T20:43:52.805Z,99.21
2022-11-22T20:46:22.086Z,98.78
2022-11-22T20:48:50.482Z,99.27
2022-11-22T20:51:22.677Z,98.78
2022-11-22T20:53:50.648Z,98.14
2022-11-22T20:56:18.933Z,98.61
2022-11-22T20:58:46.990Z,97.80
2022-11-22T21:01:18.413Z,98.60
2022-11-22T21:03:46.794Z,99.36
2022-11-22T21:06:15.935Z,99.50
2022-11-22T21:08:45.303Z,99.95
2022-11-22T21:11:15.918Z,100.00
2022-11-22T21:13:44.607Z,100.00
2022-11-22T21:16:22.925Z,100.00
2022-11-22T21:18:53.798Z,100.00
2022-11-22T21:21:24.016Z,100.00
2022-11-22T21:23:53.488Z,100.00
2022-11-22T21:26:22.373Z,100.00
2022-11-22T21:28:50.773Z,100.00
2022-11-22T21:31:18.827Z,100.00
2022-11-22T21:33:47.142Z,100.00
2022-11-22T21:36:16.700Z,100.00
2022-11-22T21:38:44.658Z,100.00
2022-11-22T21:44:05.647Z,100.00
2022-11-22T21:46:33.504Z,100.00
2022-11-22T21:49:01.361Z,100.00
2022-11-22T21:51:30.617Z,100.00
2022-11-22T21:53:59.391Z,100.00
2022-11-22T21:56:27.679Z,100.00
2022-11-22T21:58:55.647Z,100.00
2022-11-22T22:01:23.911Z,100.00
2022-11-22T22:03:51.958Z,100.00
2022-11-22T22:06:20.287Z,100.00
2022-11-22T22:08:49.687Z,100.00
2022-11-22T22:11:17.823Z,100.00
2022-11-22T22:13:45.703Z,100.00
2022-11-22T22:16:18.919Z,100.00
2022-11-22T22:18:47.403Z,100.00
2022-11-22T22:21:16.172Z,100.00
2022-11-22T22:23:45.107Z,100.00
2022-11-22T22:26:16.025Z,100.00
2022-11-22T22:28:45.065Z,100.00
2022-11-22T22:31:16.853Z,100.00
2022-11-22T22:33:46.598Z,100.00
2022-11-22T22:36:15.196Z,100.00
2022-11-22T22:38:43.231Z,100.00
2022-11-22T22:41:12.874Z,100.00
2022-11-22T22:43:43.870Z,100.00
2022-11-22T22:46:13.679Z,100.00
2022-11-22T22:48:41.749Z,100.00
2022-11-22T22:51:12.808Z,100.00
2022-11-22T22:53:41.003Z,100.00
2022-11-22T22:56:10.570Z,100.00
2022-11-22T22:58:38.511Z,100.00
2022-11-22T23:01:09.804Z,100.00
2022-11-22T23:03:38.052Z,100.00
2022-11-22T23:06:07.369Z,100.00
2022-11-22T23:08:35.592Z,100.00
2022-11-22T23:11:05.251Z,100.00
2022-11-22T23:13:33.828Z,100.00
2022-11-22T23:16:02.077Z,100.00
2022-11-22T23:18:31.365Z,100.00
2022-11-22T23:21:00.448Z,100.00
2022-11-22T23:23:29.282Z,100.00
2022-11-22T23:25:57.162Z,100.00
2022-11-22T23:28:25.027Z,100.00
2022-11-22T23:30:53.447Z,100.00
2022-11-22T23:33:21.474Z,100.00
2022-11-22T23:35:50.890Z,100.00
2022-11-22T23:38:19.057Z,100.00
2022-11-22T23:40:53.963Z,100.00
2022-11-22T23:43:21.902Z,100.00
2022-11-22T23:45:49.882Z,100.00
2022-11-22T23:48:18.137Z,100.00
2022-11-22T23:50:46.165Z,100.00
2022-11-22T23:53:15.454Z,100.00
2022-11-22T23:55:43.481Z,100.00
2022-11-22T23:58:11.441Z,100.00
